Dublin, Georgia
Current Conditions -  °F | °C
As of 3:15 PM on Monday 24 Nov 2014 (Local Time) from KDBN Reporting Station
Thunderstorm Thunderstorm  
Wind Chill: 22°   Ceiling: 11000
Heat Index: 22°   Visibility: 10mi
Dew Point: 22°   Wind: 3mph
Humidity: 100%   Direction: 190°S
Pressure: 29.84"   Gusts: NA
Location:  32.54°N, 82.91°W
Report Text: KDBN 242015Z AUTO 19003KT 10SM VCTS OVC110 22/22 A2984 RMK AO2 LTG DSNT NE S AND SW
Loading
Personal Weather Stations






























Interactive Weather Map New forecast layout! Learn more

10-Day Weather Forecast

Advertisements
Track Severe Weather on mobile